Time;durP1;ratioP1;P1;durP2;ratioP2;P2;SDS_P1;SDS_P2;PMS_P1;PMS_P2;Temp;Humidity;BMP_temperature;BMP_pressure;BME280_temperature;BME280_humidity;BME280_pressure;Samples;Min_cycle;Max_cycle;Signal;HPM_P1;HPM_P2
2023/04/11 00:02:29;;;;;;;12.65;2.55;;;;;;;;;;5282844;28;20037;-71
2023/04/11 00:05:01;;;;;;;15.02;2.38;;;;;;;;;;5283451;28;20266;-71
2023/04/11 00:07:33;;;;;;;15.35;1.95;;;;;;;;;;5283468;28;20027;-71
2023/04/11 00:10:06;;;;;;;18.67;3.03;;;;;;;;;;5282730;28;20020;-70
2023/04/11 00:12:37;;;;;;;17.52;2.88;;;;;;;;;;5283047;28;20035;-70
2023/04/11 00:15:08;;;;;;;18.52;3.45;;;;;;;;;;5283240;28;20017;-70
2023/04/11 00:17:40;;;;;;;14.85;2.40;;;;;;;;;;5281968;28;20040;-71
2023/04/11 00:20:11;;;;;;;17.70;3.15;;;;;;;;;;5283508;28;20482;-70
2023/04/11 00:22:43;;;;;;;16.77;3.25;;;;;;;;;;5281658;28;20048;-70
2023/04/11 00:25:14;;;;;;;16.15;3.03;;;;;;;;;;5283387;28;20027;-71
2023/04/11 00:27:46;;;;;;;20.80;3.55;;;;;;;;;;5281806;28;20028;-71
2023/04/11 00:30:17;;;;;;;21.60;3.80;;;;;;;;;;5282535;28;20020;-71
2023/04/11 00:32:48;;;;;;;17.50;3.10;;;;;;;;;;5282668;28;20497;-71
2023/04/11 00:35:20;;;;;;;16.42;3.15;;;;;;;;;;5282991;28;20020;-70
2023/04/11 00:37:54;;;;;;;15.02;3.10;;;;;;;;;;5281818;28;20383;-70
2023/04/11 00:40:26;;;;;;;21.98;3.15;;;;;;;;;;5282819;28;20082;-71
2023/04/11 00:42:57;;;;;;;23.30;3.90;;;;;;;;;;5282303;28;20636;-71
2023/04/11 00:45:28;;;;;;;18.70;3.45;;;;;;;;;;5282140;28;20036;-71
2023/04/11 00:47:59;;;;;;;14.35;3.17;;;;;;;;;;5282227;28;20033;-70
2023/04/11 00:50:31;;;;;;;18.60;3.75;;;;;;;;;;5282364;28;20048;-71
2023/04/11 00:53:02;;;;;;;22.73;3.50;;;;;;;;;;5281478;28;20113;-70
2023/04/11 00:55:33;;;;;;;19.27;4.05;;;;;;;;;;5282466;28;20031;-71
2023/04/11 00:58:05;;;;;;;18.00;3.50;;;;;;;;;;5281523;28;20115;-70
2023/04/11 01:00:37;;;;;;;18.77;3.33;;;;;;;;;;5282280;28;20021;-70
2023/04/11 01:03:08;;;;;;;19.38;3.00;;;;;;;;;;5282189;28;20035;-71
2023/04/11 01:05:40;;;;;;;20.27;3.97;;;;;;;;;;5281415;28;20383;-70
2023/04/11 01:08:11;;;;;;;14.13;2.47;;;;;;;;;;5282357;28;20028;-70
2023/04/11 01:10:42;;;;;;;18.25;2.75;;;;;;;;;;5281424;28;20462;-70
2023/04/11 01:13:14;;;;;;;20.50;3.30;;;;;;;;;;5281292;28;20370;-70
2023/04/11 01:15:45;;;;;;;18.42;3.35;;;;;;;;;;5281356;28;20104;-71
2023/04/11 01:18:16;;;;;;;16.73;3.55;;;;;;;;;;5282256;28;20021;-71
2023/04/11 01:20:48;;;;;;;21.17;3.80;;;;;;;;;;5280821;28;20017;-71
2023/04/11 01:23:23;;;;;;;19.85;3.42;;;;;;;;;;5281904;28;20385;-71
2023/04/11 01:25:54;;;;;;;20.50;3.60;;;;;;;;;;5280512;28;20036;-71
2023/04/11 01:28:25;;;;;;;27.73;4.18;;;;;;;;;;5281694;28;20388;-71
2023/04/11 01:30:56;;;;;;;20.14;3.50;;;;;;;;;;5281330;28;20020;-71
2023/04/11 01:33:28;;;;;;;18.88;3.35;;;;;;;;;;5281027;28;20026;-71
2023/04/11 01:35:59;;;;;;;17.23;3.33;;;;;;;;;;5281129;28;20028;-71
2023/04/11 01:38:30;;;;;;;24.13;4.28;;;;;;;;;;5280614;28;20051;-72
2023/04/11 01:41:01;;;;;;;19.42;3.42;;;;;;;;;;5280344;28;20040;-71
2023/04/11 01:43:33;;;;;;;19.70;3.85;;;;;;;;;;5281411;28;20039;-70
2023/04/11 01:46:04;;;;;;;16.63;3.00;;;;;;;;;;5281104;28;20134;-70
2023/04/11 01:48:37;;;;;;;23.75;4.50;;;;;;;;;;5280434;28;20069;-71
2023/04/11 01:51:08;;;;;;;24.95;3.65;;;;;;;;;;5281266;28;20074;-70
2023/04/11 01:53:39;;;;;;;20.73;3.05;;;;;;;;;;5280865;28;20024;-71
2023/04/11 01:56:11;;;;;;;22.17;4.28;;;;;;;;;;5280623;28;20473;-70
2023/04/11 01:58:42;;;;;;;22.65;3.47;;;;;;;;;;5280761;28;20459;-70
2023/04/11 02:01:16;;;;;;;20.30;4.57;;;;;;;;;;5280443;28;20071;-70
2023/04/11 02:03:47;;;;;;;21.92;3.72;;;;;;;;;;5280659;28;20052;-71
2023/04/11 02:06:18;;;;;;;19.30;3.63;;;;;;;;;;5281561;28;20036;-70
2023/04/11 02:08:50;;;;;;;30.08;3.90;;;;;;;;;;5280083;28;20036;-71
2023/04/11 02:11:21;;;;;;;20.65;3.47;;;;;;;;;;5281821;28;20019;-70
2023/04/11 02:13:52;;;;;;;27.45;4.72;;;;;;;;;;5281058;28;20013;-70
2023/04/11 02:16:24;;;;;;;22.48;4.03;;;;;;;;;;5280714;28;20378;-71
2023/04/11 02:18:56;;;;;;;22.42;3.65;;;;;;;;;;5280966;28;20344;-70
2023/04/11 02:21:27;;;;;;;18.42;3.42;;;;;;;;;;5281351;28;20021;-70
2023/04/11 02:23:58;;;;;;;20.15;4.30;;;;;;;;;;5279763;28;20064;-70
2023/04/11 02:26:29;;;;;;;18.50;4.07;;;;;;;;;;5280846;28;20299;-71
2023/04/11 02:29:00;;;;;;;18.20;3.18;;;;;;;;;;5280915;28;20028;-70
2023/04/11 02:31:31;;;;;;;19.24;3.52;;;;;;;;;;5280327;28;20018;-70
2023/04/11 02:34:03;;;;;;;15.82;3.35;;;;;;;;;;5281050;28;20454;-70
2023/04/11 02:36:34;;;;;;;19.10;4.18;;;;;;;;;;5280497;28;20042;-71
2023/04/11 02:39:06;;;;;;;23.50;3.70;;;;;;;;;;5280797;28;20025;-70
2023/04/11 02:41:38;;;;;;;18.70;3.90;;;;;;;;;;5280563;28;20083;-70
2023/04/11 02:44:10;;;;;;;21.67;3.88;;;;;;;;;;5280577;28;20405;-72
2023/04/11 02:46:41;;;;;;;18.73;3.40;;;;;;;;;;5280606;28;20062;-70
2023/04/11 02:49:12;;;;;;;17.20;3.47;;;;;;;;;;5281211;28;20031;-71
2023/04/11 02:51:43;;;;;;;17.65;2.88;;;;;;;;;;5282591;28;20379;-71
2023/04/11 02:54:14;;;;;;;17.64;2.76;;;;;;;;;;5284732;28;20043;-71
2023/04/11 02:56:46;;;;;;;18.17;2.97;;;;;;;;;;5283993;28;20073;-71
2023/04/11 02:59:17;;;;;;;17.08;3.20;;;;;;;;;;5284188;28;20023;-71
2023/04/11 03:01:48;;;;;;;18.27;3.13;;;;;;;;;;5283753;28;20044;-71
2023/04/11 03:04:19;;;;;;;18.20;2.38;;;;;;;;;;5284292;28;20040;-71
2023/04/11 03:06:50;;;;;;;19.65;3.03;;;;;;;;;;5283766;28;20024;-71
2023/04/11 03:09:24;;;;;;;16.58;2.17;;;;;;;;;;5284487;28;20125;-71
2023/04/11 03:11:56;;;;;;;12.60;2.28;;;;;;;;;;5283016;28;20467;-71
2023/04/11 03:14:27;;;;;;;13.90;2.47;;;;;;;;;;5284266;28;20071;-70
2023/04/11 03:16:58;;;;;;;15.27;2.30;;;;;;;;;;5283662;28;20020;-71
2023/04/11 03:19:29;;;;;;;10.95;1.67;;;;;;;;;;5283249;28;20033;-71
2023/04/11 03:22:01;;;;;;;12.27;1.50;;;;;;;;;;5283741;28;20056;-71
2023/04/11 03:24:32;;;;;;;12.63;1.35;;;;;;;;;;5284054;28;20029;-71
2023/04/11 03:27:03;;;;;;;12.90;1.63;;;;;;;;;;5283016;28;20530;-71
2023/04/11 03:29:34;;;;;;;11.60;1.52;;;;;;;;;;5284114;28;20012;-72
2023/04/11 03:32:06;;;;;;;9.48;1.02;;;;;;;;;;5283821;28;20020;-71
2023/04/11 03:34:37;;;;;;;13.27;1.15;;;;;;;;;;5283202;28;20028;-71
2023/04/11 03:37:08;;;;;;;10.73;1.15;;;;;;;;;;5284178;28;20098;-71
2023/04/11 03:39:39;;;;;;;12.82;1.05;;;;;;;;;;5282626;28;20029;-71
2023/04/11 03:42:11;;;;;;;13.25;0.98;;;;;;;;;;5283796;28;20115;-71
2023/04/11 03:44:43;;;;;;;6.90;1.33;;;;;;;;;;5283077;28;20123;-71
2023/04/11 03:47:14;;;;;;;9.18;1.45;;;;;;;;;;5282886;28;20023;-70
2023/04/11 03:49:45;;;;;;;17.48;1.40;;;;;;;;;;5282881;28;20036;-71
2023/04/11 03:52:16;;;;;;;10.30;1.20;;;;;;;;;;5283461;28;20016;-70
2023/04/11 03:54:48;;;;;;;9.40;0.90;;;;;;;;;;5282007;28;20266;-69
2023/04/11 03:57:19;;;;;;;9.88;0.80;;;;;;;;;;5283412;28;20463;-70
2023/04/11 03:59:50;;;;;;;16.67;1.83;;;;;;;;;;5282854;28;20027;-71
2023/04/11 04:02:21;;;;;;;10.13;1.20;;;;;;;;;;5281373;28;20042;-71
2023/04/11 04:04:57;;;;;;;10.95;1.05;;;;;;;;;;5282823;28;20379;-70
2023/04/11 04:07:28;;;;;;;15.60;1.90;;;;;;;;;;5283665;28;20116;-71
2023/04/11 04:10:00;;;;;;;8.32;1.30;;;;;;;;;;5282076;28;20021;-70
2023/04/11 04:12:31;;;;;;;8.63;1.00;;;;;;;;;;5282705;28;20033;-70
2023/04/11 04:15:02;;;;;;;10.68;0.90;;;;;;;;;;5281943;28;20371;-70
2023/04/11 04:17:33;;;;;;;12.50;1.75;;;;;;;;;;5282867;28;20070;-70
2023/04/11 04:20:05;;;;;;;12.82;1.33;;;;;;;;;;5282561;28;20021;-70
2023/04/11 04:22:37;;;;;;;14.18;1.60;;;;;;;;;;5281829;28;20087;-70
2023/04/11 04:25:11;;;;;;;12.48;1.60;;;;;;;;;;5282677;28;20043;-71
2023/04/11 04:27:43;;;;;;;13.70;2.22;;;;;;;;;;5282645;28;20085;-69
2023/04/11 04:30:14;;;;;;;18.20;2.15;;;;;;;;;;5282165;28;20021;-70
2023/04/11 04:32:45;;;;;;;16.80;2.15;;;;;;;;;;5282069;28;20020;-69
2023/04/11 04:35:17;;;;;;;14.66;2.20;;;;;;;;;;5282817;28;20051;-70
2023/04/11 04:37:48;;;;;;;12.90;2.40;;;;;;;;;;5281189;28;20030;-70
2023/04/11 04:40:20;;;;;;;16.50;2.97;;;;;;;;;;5282871;28;20363;-70
2023/04/11 04:42:57;;;;;;;13.65;2.15;;;;;;;;;;5280809;28;20050;-70
2023/04/11 04:45:28;;;;;;;10.77;1.98;;;;;;;;;;5282797;28;20043;-70
2023/04/11 04:47:59;;;;;;;13.93;2.22;;;;;;;;;;5281930;28;20388;-71
2023/04/11 04:50:30;;;;;;;12.43;1.92;;;;;;;;;;5281390;28;20086;-71
2023/04/11 04:53:01;;;;;;;19.55;2.47;;;;;;;;;;5281908;28;20048;-71
2023/04/11 04:55:33;;;;;;;12.68;2.00;;;;;;;;;;5282096;28;20036;-71
2023/04/11 04:58:04;;;;;;;13.45;2.13;;;;;;;;;;5281084;28;20048;-70
2023/04/11 05:00:36;;;;;;;9.50;1.92;;;;;;;;;;5281640;28;20088;-71
2023/04/11 05:03:09;;;;;;;10.75;1.67;;;;;;;;;;5281901;28;20353;-72
2023/04/11 05:05:40;;;;;;;11.65;1.10;;;;;;;;;;5280766;28;20024;-71
2023/04/11 05:08:11;;;;;;;8.62;1.56;;;;;;;;;;5282059;28;20077;-71
2023/04/11 05:10:43;;;;;;;11.77;2.28;;;;;;;;;;5281437;28;20013;-71
2023/04/11 05:13:14;;;;;;;11.52;1.17;;;;;;;;;;5280893;28;20020;-71
2023/04/11 05:15:48;;;;;;;8.74;1.06;;;;;;;;;;5281530;28;20023;-69
2023/04/11 05:18:20;;;;;;;12.13;2.17;;;;;;;;;;5281289;28;20028;-70
2023/04/11 05:20:51;;;;;;;8.06;0.90;;;;;;;;;;5281694;28;20017;-70
2023/04/11 05:23:22;;;;;;;11.48;1.10;;;;;;;;;;5281833;28;20048;-71
2023/04/11 05:25:53;;;;;;;7.90;1.05;;;;;;;;;;5280679;28;20025;-71
2023/04/11 05:28:24;;;;;;;6.88;0.80;;;;;;;;;;5282267;28;20051;-71
2023/04/11 05:30:56;;;;;;;6.72;0.80;;;;;;;;;;5281370;28;20024;-71
2023/04/11 05:33:27;;;;;;;10.88;1.27;;;;;;;;;;5280940;28;20094;-71
2023/04/11 05:35:58;;;;;;;7.18;0.68;;;;;;;;;;5281288;28;20025;-70
2023/04/11 05:38:32;;;;;;;10.30;0.80;;;;;;;;;;5281628;28;20459;-71
2023/04/11 05:41:03;;;;;;;7.07;0.98;;;;;;;;;;5281143;28;20103;-70
2023/04/11 05:43:34;;;;;;;13.13;1.17;;;;;;;;;;5281535;28;20431;-70
2023/04/11 05:46:06;;;;;;;10.70;1.10;;;;;;;;;;5280649;28;20024;-71
2023/04/11 05:48:38;;;;;;;8.13;1.10;;;;;;;;;;5280884;28;20028;-71
2023/04/11 05:51:09;;;;;;;8.25;1.20;;;;;;;;;;5281712;28;20021;-71
2023/04/11 05:53:40;;;;;;;6.78;0.63;;;;;;;;;;5280477;28;20086;-72
2023/04/11 05:56:11;;;;;;;8.55;1.38;;;;;;;;;;5281419;28;20020;-71
2023/04/11 05:58:43;;;;;;;9.10;1.02;;;;;;;;;;5281054;28;20012;-71
2023/04/11 06:01:17;;;;;;;10.63;0.82;;;;;;;;;;5280885;28;20047;-71
2023/04/11 06:03:49;;;;;;;11.43;1.02;;;;;;;;;;5280863;28;20033;-71
2023/04/11 06:06:20;;;;;;;12.07;0.90;;;;;;;;;;5281694;28;20021;-71
2023/04/11 06:08:51;;;;;;;7.35;1.45;;;;;;;;;;5280239;28;20021;-71
2023/04/11 06:11:24;;;;;;;7.88;1.08;;;;;;;;;;5281331;28;20065;-70
2023/04/11 06:13:55;;;;;;;13.13;2.10;;;;;;;;;;5280913;28;20021;-72
2023/04/11 06:16:26;;;;;;;10.73;1.50;;;;;;;;;;5281020;28;20103;-71
2023/04/11 06:18:58;;;;;;;6.60;0.95;;;;;;;;;;5281005;28;20063;-71
2023/04/11 06:21:31;;;;;;;11.30;1.00;;;;;;;;;;5280413;28;20039;-71
2023/04/11 06:24:09;;;;;;;10.68;1.27;;;;;;;;;;5280811;28;20159;-70
2023/04/11 06:26:40;;;;;;;6.53;1.00;;;;;;;;;;5284371;28;20103;-70
2023/04/11 06:29:11;;;;;;;13.88;1.50;;;;;;;;;;5284783;28;20074;-70
2023/04/11 06:31:42;;;;;;;7.68;0.95;;;;;;;;;;5284880;28;20020;-71
2023/04/11 06:34:13;;;;;;;11.18;1.35;;;;;;;;;;5285185;28;20107;-71
2023/04/11 06:36:46;;;;;;;9.93;1.10;;;;;;;;;;5283866;28;20274;-70
2023/04/11 06:39:18;;;;;;;10.52;1.92;;;;;;;;;;5285245;28;20741;-70
2023/04/11 06:41:49;;;;;;;9.05;2.03;;;;;;;;;;5284239;28;20054;-73
2023/04/11 06:44:20;;;;;;;10.00;1.63;;;;;;;;;;5284108;28;20400;-69
2023/04/11 06:46:51;;;;;;;9.80;1.17;;;;;;;;;;5284023;28;20023;-70
2023/04/11 06:49:23;;;;;;;8.98;1.25;;;;;;;;;;5284135;28;20028;-73
2023/04/11 06:51:54;;;;;;;7.82;1.00;;;;;;;;;;5284041;28;20482;-72
2023/04/11 06:54:26;;;;;;;8.82;1.10;;;;;;;;;;5284882;28;20048;-73
2023/04/11 06:56:57;;;;;;;7.88;1.15;;;;;;;;;;5283390;28;20035;-73
2023/04/11 06:59:28;;;;;;;9.75;1.80;;;;;;;;;;5284774;28;20016;-73
2023/04/11 07:02:00;;;;;;;10.38;1.13;;;;;;;;;;5284423;28;20036;-73
2023/04/11 07:04:32;;;;;;;11.30;1.50;;;;;;;;;;5283593;28;20017;-73
2023/04/11 07:07:04;;;;;;;9.38;1.67;;;;;;;;;;5284050;28;20263;-74
2023/04/11 07:09:35;;;;;;;9.98;1.95;;;;;;;;;;5284126;28;20127;-74
2023/04/11 07:12:06;;;;;;;9.85;1.83;;;;;;;;;;5283183;28;20024;-73
2023/04/11 07:14:37;;;;;;;9.73;1.70;;;;;;;;;;5283999;28;20467;-73
2023/04/11 07:17:08;;;;;;;7.75;1.50;;;;;;;;;;5284175;28;20031;-73
2023/04/11 07:19:40;;;;;;;13.10;2.53;;;;;;;;;;5282887;28;20016;-74
2023/04/11 07:22:11;;;;;;;9.23;2.47;;;;;;;;;;5283699;28;20032;-73
2023/04/11 07:24:42;;;;;;;9.48;1.98;;;;;;;;;;5282722;28;20029;-73
2023/04/11 07:27:13;;;;;;;9.02;2.50;;;;;;;;;;5283931;28;20279;-74
2023/04/11 07:29:45;;;;;;;9.55;2.00;;;;;;;;;;5283566;28;20247;-74
2023/04/11 07:32:16;;;;;;;11.25;2.00;;;;;;;;;;5283237;28;20074;-73
2023/04/11 07:34:47;;;;;;;9.52;1.70;;;;;;;;;;5283109;28;20344;-73
2023/04/11 07:37:18;;;;;;;8.20;1.40;;;;;;;;;;5283329;28;20363;-71
2023/04/11 07:39:50;;;;;;;6.93;1.23;;;;;;;;;;5282199;28;20025;-71
2023/04/11 07:42:22;;;;;;;8.23;1.67;;;;;;;;;;5283629;28;20618;-71
2023/04/11 07:44:53;;;;;;;6.53;0.93;;;;;;;;;;5282946;28;20023;-71
2023/04/11 07:47:24;;;;;;;5.85;1.02;;;;;;;;;;5283036;28;20042;-71
2023/04/11 07:49:55;;;;;;;8.75;1.30;;;;;;;;;;5282913;28;20307;-71
2023/04/11 07:52:26;;;;;;;7.20;1.17;;;;;;;;;;5283662;28;20267;-71
2023/04/11 07:54:57;;;;;;;7.15;1.05;;;;;;;;;;5282555;28;20402;-72
2023/04/11 07:57:29;;;;;;;5.60;0.80;;;;;;;;;;5283396;28;20027;-72
2023/04/11 08:00:00;;;;;;;8.52;0.90;;;;;;;;;;5282078;28;20362;-69
2023/04/11 08:02:31;;;;;;;9.30;1.23;;;;;;;;;;5282886;28;20043;-72
2023/04/11 08:05:03;;;;;;;6.78;1.05;;;;;;;;;;5282895;28;20493;-71
2023/04/11 08:07:34;;;;;;;4.10;0.65;;;;;;;;;;5282141;28;20737;-71
2023/04/11 08:10:06;;;;;;;7.18;0.85;;;;;;;;;;5283322;28;20013;-71
2023/04/11 08:12:37;;;;;;;4.80;0.73;;;;;;;;;;5282577;28;20052;-71
2023/04/11 08:15:08;;;;;;;7.25;1.02;;;;;;;;;;5282108;28;20017;-70
2023/04/11 08:17:42;;;;;;;7.32;1.15;;;;;;;;;;5282211;28;20108;-71
2023/04/11 08:20:13;;;;;;;4.50;0.90;;;;;;;;;;5283074;28;20371;-71
2023/04/11 08:22:45;;;;;;;8.32;0.88;;;;;;;;;;5281103;28;20055;-71
2023/04/11 08:25:21;;;;;;;6.78;1.05;;;;;;;;;;5282891;28;20367;-71
2023/04/11 08:27:52;;;;;;;8.10;0.80;;;;;;;;;;5281886;28;20020;-71
2023/04/11 08:30:25;;;;;;;7.20;0.70;;;;;;;;;;5282929;28;20017;-71
2023/04/11 08:32:56;;;;;;;7.28;0.60;;;;;;;;;;5282302;28;20607;-72
2023/04/11 08:35:27;;;;;;;6.97;0.68;;;;;;;;;;5282014;28;20024;-72
2023/04/11 08:37:58;;;;;;;3.22;0.65;;;;;;;;;;5282129;28;20021;-71
2023/04/11 08:40:30;;;;;;;6.23;0.80;;;;;;;;;;5282581;28;20020;-71
2023/04/11 08:43:01;;;;;;;4.85;0.60;;;;;;;;;;5281532;28;20287;-71
2023/04/11 08:45:32;;;;;;;5.72;0.75;;;;;;;;;;5281978;28;20024;-70
2023/04/11 08:48:04;;;;;;;4.90;0.65;;;;;;;;;;5281805;28;20017;-71
2023/04/11 08:50:35;;;;;;;8.13;0.85;;;;;;;;;;5281183;28;20024;-72
2023/04/11 08:53:07;;;;;;;5.80;0.90;;;;;;;;;;5281845;28;20098;-71
2023/04/11 08:55:47;;;;;;;5.93;0.60;;;;;;;;;;5281552;28;20136;-71
2023/04/11 08:58:18;;;;;;;7.40;0.90;;;;;;;;;;5281354;28;20096;-72
2023/04/11 09:00:49;;;;;;;7.10;0.60;;;;;;;;;;5281676;28;20146;-71
2023/04/11 09:03:21;;;;;;;6.57;0.82;;;;;;;;;;5281216;28;20028;-71
2023/04/11 09:05:53;;;;;;;3.90;0.63;;;;;;;;;;5281396;28;20390;-71
2023/04/11 09:08:36;;;;;;;7.32;0.88;;;;;;;;;;5263783;28;20274;-71
2023/04/11 09:11:07;;;;;;;7.60;0.80;;;;;;;;;;5280825;28;20107;-71
2023/04/11 09:13:38;;;;;;;7.20;0.70;;;;;;;;;;5281300;28;20406;-71
2023/04/11 09:16:11;;;;;;;4.82;0.52;;;;;;;;;;5282199;28;20597;-70
2023/04/11 09:18:48;;;;;;;5.15;1.02;;;;;;;;;;5280640;28;20805;-70
2023/04/11 09:21:19;;;;;;;4.40;0.63;;;;;;;;;;5281872;28;20016;-71
2023/04/11 09:23:50;;;;;;;5.93;0.55;;;;;;;;;;5280586;28;20081;-71
2023/04/11 09:26:26;;;;;;;3.15;0.47;;;;;;;;;;5280593;28;20017;-71
2023/04/11 09:28:57;;;;;;;4.38;1.00;;;;;;;;;;5280586;28;20068;-71
2023/04/11 09:31:41;;;;;;;5.50;0.60;;;;;;;;;;5280669;28;20021;-70
2023/04/11 09:34:12;;;;;;;5.75;0.80;;;;;;;;;;5280989;28;20016;-72
2023/04/11 09:36:52;;;;;;;3.78;0.52;;;;;;;;;;5280015;28;20020;-72
2023/04/11 09:39:27;;;;;;;7.53;0.70;;;;;;;;;;5280457;28;20055;-71
2023/04/11 09:41:58;;;;;;;5.40;0.50;;;;;;;;;;5279679;28;20527;-71
2023/04/11 09:44:36;;;;;;;3.40;0.63;;;;;;;;;;5280626;28;20162;-72
2023/04/11 09:47:08;;;;;;;5.30;0.73;;;;;;;;;;5279460;28;20024;-71
2023/04/11 09:49:39;;;;;;;3.30;0.40;;;;;;;;;;5280069;28;20020;-72
2023/04/11 09:52:11;;;;;;;4.50;0.70;;;;;;;;;;5280480;28;20020;-72
2023/04/11 09:54:42;;;;;;;4.68;0.70;;;;;;;;;;5278928;28;20277;-72
2023/04/11 09:57:14;;;;;;;5.13;0.55;;;;;;;;;;5280630;28;20017;-72
2023/04/11 09:59:45;;;;;;;7.07;0.75;;;;;;;;;;5279201;28;20028;-72
2023/04/11 10:02:16;;;;;;;3.42;0.75;;;;;;;;;;5284075;28;20513;-72
2023/04/11 10:04:48;;;;;;;3.07;0.50;;;;;;;;;;5283513;28;20024;-72
2023/04/11 10:07:20;;;;;;;5.28;0.50;;;;;;;;;;5283554;28;20251;-72
2023/04/11 10:09:52;;;;;;;6.30;0.60;;;;;;;;;;5283935;28;20149;-72
2023/04/11 10:12:32;;;;;;;4.50;0.57;;;;;;;;;;5284183;28;20028;-71
2023/04/11 10:15:07;;;;;;;3.22;0.40;;;;;;;;;;5282728;28;20013;-71
2023/04/11 10:17:39;;;;;;;3.60;0.50;;;;;;;;;;5283104;28;20073;-72
2023/04/11 10:20:29;;;;;;;4.55;0.70;;;;;;;;;;5283933;28;20430;-71
2023/04/11 10:23:01;;;;;;;4.70;0.40;;;;;;;;;;5246410;28;1054409;-71
2023/04/11 10:25:46;;;;;;;3.58;0.50;;;;;;;;;;5284451;28;20024;-71
2023/04/11 10:28:32;;;;;;;4.60;0.68;;;;;;;;;;5284788;28;20025;-71
2023/04/11 10:31:05;;;;;;;2.58;0.50;;;;;;;;;;5284443;28;20021;-71
2023/04/11 10:33:37;;;;;;;3.45;0.40;;;;;;;;;;5285252;28;20017;-71
2023/04/11 10:36:09;;;;;;;2.88;0.32;;;;;;;;;;5283917;28;20032;-71
2023/04/11 10:38:40;;;;;;;4.05;0.60;;;;;;;;;;5284594;28;20008;-71
2023/04/11 10:41:27;;;;;;;5.18;0.50;;;;;;;;;;5284898;28;20027;-71
2023/04/11 10:44:14;;;;;;;5.72;0.50;;;;;;;;;;5283799;28;20425;-70
2023/04/11 10:46:46;;;;;;;4.63;0.57;;;;;;;;;;5284487;28;20012;-70
2023/04/11 10:49:31;;;;;;;3.13;0.35;;;;;;;;;;5284326;28;20016;-70
2023/04/11 10:52:15;;;;;;;2.85;0.50;;;;;;;;;;5284594;28;20028;-70
2023/04/11 10:54:47;;;;;;;5.20;0.50;;;;;;;;;;5284350;28;20433;-71
2023/04/11 10:57:19;;;;;;;5.65;0.60;;;;;;;;;;5283944;28;20021;-71
2023/04/11 10:59:50;;;;;;;3.35;0.55;;;;;;;;;;5284238;28;20383;-71
2023/04/11 11:02:23;;;;;;;5.45;0.50;;;;;;;;;;5284363;28;20463;-71
2023/04/11 11:04:54;;;;;;;5.43;0.45;;;;;;;;;;5283173;28;20756;-71
2023/04/11 11:07:26;;;;;;;3.13;0.43;;;;;;;;;;5283934;28;20026;-71
2023/04/11 11:09:57;;;;;;;5.63;0.70;;;;;;;;;;5283028;28;20348;-71
2023/04/11 11:12:28;;;;;;;3.97;0.30;;;;;;;;;;5284131;28;20505;-71
2023/04/11 11:15:11;;;;;;;3.33;0.40;;;;;;;;;;5283692;28;20322;-71
2023/04/11 11:17:42;;;;;;;4.70;0.40;;;;;;;;;;5282948;28;20593;-72
2023/04/11 11:20:18;;;;;;;3.22;0.45;;;;;;;;;;5284656;28;20016;-70
2023/04/11 11:23:03;;;;;;;4.28;0.40;;;;;;;;;;5283341;28;20066;-70
2023/04/11 11:25:35;;;;;;;3.10;0.38;;;;;;;;;;5283133;28;20533;-70
2023/04/11 11:28:07;;;;;;;2.47;0.22;;;;;;;;;;5283420;28;20028;-71
2023/04/11 11:30:48;;;;;;;3.13;0.30;;;;;;;;;;5283638;28;20123;-70
2023/04/11 11:33:20;;;;;;;2.30;0.40;;;;;;;;;;5283855;28;20027;-71
2023/04/11 11:35:54;;;;;;;2.30;0.40;;;;;;;;;;5283228;28;20065;-70
2023/04/11 11:38:27;;;;;;;3.97;0.43;;;;;;;;;;5283196;28;20074;-70
2023/04/11 11:40:58;;;;;;;4.10;0.40;;;;;;;;;;5283341;28;20016;-70
2023/04/11 11:43:34;;;;;;;4.30;0.50;;;;;;;;;;5283508;28;20556;-71
2023/04/11 11:46:09;;;;;;;3.58;0.50;;;;;;;;;;5282779;28;20028;-71
2023/04/11 11:48:42;;;;;;;2.50;0.43;;;;;;;;;;5282998;28;20009;-72
2023/04/11 11:51:13;;;;;;;4.05;0.40;;;;;;;;;;5283364;28;20028;-70
2023/04/11 11:54:00;;;;;;;3.75;0.40;;;;;;;;;;5282263;28;20497;-72
2023/04/11 11:56:31;;;;;;;2.53;0.30;;;;;;;;;;5283147;28;20039;-73
2023/04/11 11:59:05;;;;;;;4.93;0.55;;;;;;;;;;5282217;28;20502;-73
2023/04/11 12:01:36;;;;;;;3.92;0.30;;;;;;;;;;5283094;28;20020;-73
2023/04/11 12:04:11;;;;;;;3.80;0.45;;;;;;;;;;5283055;28;20074;-71
2023/04/11 12:06:42;;;;;;;3.53;0.43;;;;;;;;;;5281991;28;20455;-72
2023/04/11 12:09:14;;;;;;;3.70;0.40;;;;;;;;;;5283293;28;20107;-72
2023/04/11 12:11:45;;;;;;;2.88;0.50;;;;;;;;;;5282615;28;20019;-72
2023/04/11 12:14:25;;;;;;;2.73;0.37;;;;;;;;;;5282811;28;20012;-69
2023/04/11 12:16:56;;;;;;;2.55;0.30;;;;;;;;;;5282540;28;20258;-72
2023/04/11 12:19:28;;;;;;;2.30;0.30;;;;;;;;;;5283223;28;20016;-71
2023/04/11 12:22:00;;;;;;;3.65;0.45;;;;;;;;;;5281686;28;20490;-72
2023/04/11 12:24:31;;;;;;;3.40;0.40;;;;;;;;;;5281803;28;20060;-72
2023/04/11 12:27:03;;;;;;;3.13;0.32;;;;;;;;;;5282149;28;20012;-72
2023/04/11 12:29:34;;;;;;;2.97;0.30;;;;;;;;;;5282880;28;20271;-72
2023/04/11 12:32:05;;;;;;;5.33;0.77;;;;;;;;;;5283013;28;20035;-71
2023/04/11 12:34:37;;;;;;;3.93;0.30;;;;;;;;;;5281681;28;20271;-69
2023/04/11 12:37:08;;;;;;;2.17;0.30;;;;;;;;;;5282336;28;20257;-71
2023/04/11 12:39:39;;;;;;;3.90;0.40;;;;;;;;;;5282004;28;20345;-70
2023/04/11 12:42:10;;;;;;;1.92;0.20;;;;;;;;;;5281898;28;20286;-69
2023/04/11 12:44:42;;;;;;;3.00;0.20;;;;;;;;;;5281723;28;20044;-70
2023/04/11 12:47:13;;;;;;;3.53;0.30;;;;;;;;;;5282128;28;20131;-70
2023/04/11 12:49:44;;;;;;;2.08;0.20;;;;;;;;;;5280820;28;20459;-70
2023/04/11 12:52:16;;;;;;;3.67;0.20;;;;;;;;;;5282245;28;20733;-70
2023/04/11 12:54:47;;;;;;;2.67;0.40;;;;;;;;;;5281875;28;20771;-70
2023/04/11 12:57:18;;;;;;;2.22;0.30;;;;;;;;;;5281816;28;20025;-70
2023/04/11 12:59:50;;;;;;;3.08;0.30;;;;;;;;;;5281558;28;20263;-70
2023/04/11 13:02:21;;;;;;;1.92;0.38;;;;;;;;;;5281743;28;20021;-70
2023/04/11 13:04:52;;;;;;;2.28;0.20;;;;;;;;;;5281804;28;20092;-69
2023/04/11 13:07:23;;;;;;;2.53;0.35;;;;;;;;;;5282355;28;20016;-69
2023/04/11 13:09:55;;;;;;;3.15;0.40;;;;;;;;;;5280977;28;20486;-70
2023/04/11 13:12:26;;;;;;;3.03;0.40;;;;;;;;;;5282368;28;20013;-69
2023/04/11 13:14:57;;;;;;;2.20;0.30;;;;;;;;;;5281875;28;20398;-70
2023/04/11 13:17:28;;;;;;;2.75;0.30;;;;;;;;;;5281424;28;20040;-70
2023/04/11 13:20:00;;;;;;;2.33;0.30;;;;;;;;;;5281662;28;20016;-70
2023/04/11 13:22:31;;;;;;;2.47;0.30;;;;;;;;;;5281368;28;20299;-70
2023/04/11 13:25:02;;;;;;;3.17;0.38;;;;;;;;;;5280946;28;20040;-70
2023/04/11 13:27:34;;;;;;;4.18;0.40;;;;;;;;;;5281155;28;20036;-69
2023/04/11 13:30:06;;;;;;;2.17;0.32;;;;;;;;;;5281430;28;20095;-71
2023/04/11 13:32:37;;;;;;;3.53;0.40;;;;;;;;;;5280429;28;20099;-70
2023/04/11 13:35:09;;;;;;;2.28;0.38;;;;;;;;;;5280802;28;20467;-69
2023/04/11 13:37:40;;;;;;;4.25;0.40;;;;;;;;;;5280353;28;20737;-70
2023/04/11 13:40:14;;;;;;;2.17;0.30;;;;;;;;;;5281690;28;20023;-69
2023/04/11 13:42:45;;;;;;;4.50;0.32;;;;;;;;;;5280457;28;20492;-70
2023/04/11 13:45:16;;;;;;;3.33;0.30;;;;;;;;;;5280652;28;20171;-70
2023/04/11 13:47:47;;;;;;;3.45;0.40;;;;;;;;;;5280925;28;20024;-70
2023/04/11 13:50:19;;;;;;;4.28;0.30;;;;;;;;;;5281804;28;20091;-70
2023/04/11 13:52:50;;;;;;;6.28;0.50;;;;;;;;;;5280348;28;20316;-69
2023/04/11 13:55:22;;;;;;;3.67;0.70;;;;;;;;;;5281740;28;20067;-69
2023/04/11 13:57:53;;;;;;;3.00;0.40;;;;;;;;;;5280843;28;20017;-70
2023/04/11 14:00:25;;;;;;;3.73;0.50;;;;;;;;;;5280456;28;20040;-69
2023/04/11 14:02:57;;;;;;;3.17;0.30;;;;;;;;;;5280808;28;20306;-70
2023/04/11 14:05:31;;;;;;;3.33;0.40;;;;;;;;;;5280023;28;20119;-71
2023/04/11 14:08:02;;;;;;;4.25;0.60;;;;;;;;;;5280979;28;20342;-71
2023/04/11 14:10:34;;;;;;;3.97;0.47;;;;;;;;;;5281146;28;20095;-71
2023/04/11 14:13:05;;;;;;;3.22;0.30;;;;;;;;;;5280347;28;20021;-71
2023/04/11 14:15:36;;;;;;;3.45;0.40;;;;;;;;;;5281078;28;20032;-70
2023/04/11 14:18:07;;;;;;;4.73;0.50;;;;;;;;;;5281396;28;20016;-70
2023/04/11 14:20:39;;;;;;;4.27;0.50;;;;;;;;;;5279856;28;20263;-70
2023/04/11 14:23:12;;;;;;;3.13;0.40;;;;;;;;;;5280701;28;20298;-70
2023/04/11 14:25:43;;;;;;;3.28;0.50;;;;;;;;;;5280506;28;20016;-70
2023/04/11 14:28:15;;;;;;;3.80;0.40;;;;;;;;;;5279696;28;20026;-69
2023/04/11 14:30:46;;;;;;;2.83;0.38;;;;;;;;;;5280552;28;20320;-69
2023/04/11 14:33:17;;;;;;;4.17;0.33;;;;;;;;;;5281395;28;20025;-70
2023/04/11 14:35:49;;;;;;;2.67;0.43;;;;;;;;;;5279449;28;20273;-70
2023/04/11 14:38:20;;;;;;;5.15;0.50;;;;;;;;;;5281025;28;20069;-70
2023/04/11 14:40:51;;;;;;;3.63;0.43;;;;;;;;;;5279838;28;20472;-69
2023/04/11 14:43:23;;;;;;;4.38;0.50;;;;;;;;;;5278435;28;20317;-69
2023/04/11 14:45:55;;;;;;;3.60;0.40;;;;;;;;;;5280116;28;20323;-69
2023/04/11 14:48:28;;;;;;;4.05;0.40;;;;;;;;;;5283596;28;20294;-69
2023/04/11 14:51:01;;;;;;;4.15;0.50;;;;;;;;;;5283700;28;20028;-68
2023/04/11 14:53:32;;;;;;;3.83;0.40;;;;;;;;;;5283814;28;20013;-69
2023/04/11 14:56:04;;;;;;;4.50;0.57;;;;;;;;;;5282552;28;20494;-69
2023/04/11 14:58:36;;;;;;;5.28;0.50;;;;;;;;;;5284401;28;20028;-69
2023/04/11 15:01:07;;;;;;;2.85;0.40;;;;;;;;;;5283344;28;20020;-69
2023/04/11 15:03:38;;;;;;;2.90;0.40;;;;;;;;;;5283154;28;20329;-69
2023/04/11 15:06:10;;;;;;;3.63;0.40;;;;;;;;;;5282442;28;20262;-69
2023/04/11 15:08:42;;;;;;;4.32;0.52;;;;;;;;;;5281451;28;20025;-70